sensor_id;sensor_type;location;lat;lon;timestamp;P1;durP1;ratioP1;P2;durP2;ratioP2
32236;SDS011;18726;44.732;10.550;2023-06-26T00:01:55;17.80;;;12.13;;
32236;SDS011;18726;44.732;10.550;2023-06-26T00:04:58;12.68;;;11.25;;
32236;SDS011;18726;44.732;10.550;2023-06-26T00:08:05;11.55;;;9.90;;
32236;SDS011;18726;44.732;10.550;2023-06-26T00:11:09;12.45;;;11.25;;
32236;SDS011;18726;44.732;10.550;2023-06-26T00:14:13;13.40;;;12.00;;
32236;SDS011;18726;44.732;10.550;2023-06-26T00:17:17;12.93;;;11.75;;
32236;SDS011;18726;44.732;10.550;2023-06-26T00:20:21;12.43;;;11.15;;
32236;SDS011;18726;44.732;10.550;2023-06-26T00:23:26;12.85;;;11.60;;
32236;SDS011;18726;44.732;10.550;2023-06-26T00:26:34;15.77;;;13.18;;
32236;SDS011;18726;44.732;10.550;2023-06-26T00:29:38;17.30;;;12.93;;
32236;SDS011;18726;44.732;10.550;2023-06-26T00:32:42;15.80;;;11.00;;
32236;SDS011;18726;44.732;10.550;2023-06-26T00:35:45;15.93;;;11.95;;
32236;SDS011;18726;44.732;10.550;2023-06-26T00:38:49;14.05;;;11.43;;
32236;SDS011;18726;44.732;10.550;2023-06-26T00:41:53;17.75;;;11.77;;
32236;SDS011;18726;44.732;10.550;2023-06-26T00:44:59;13.55;;;12.15;;
32236;SDS011;18726;44.732;10.550;2023-06-26T00:48:03;11.10;;;10.07;;
32236;SDS011;18726;44.732;10.550;2023-06-26T00:51:07;9.48;;;8.10;;
32236;SDS011;18726;44.732;10.550;2023-06-26T00:54:12;8.65;;;7.85;;
32236;SDS011;18726;44.732;10.550;2023-06-26T00:57:18;8.07;;;7.35;;
32236;SDS011;18726;44.732;10.550;2023-06-26T01:00:22;9.90;;;8.20;;
32236;SDS011;18726;44.732;10.550;2023-06-26T01:03:26;8.27;;;7.38;;
32236;SDS011;18726;44.732;10.550;2023-06-26T01:06:32;11.65;;;8.88;;
32236;SDS011;18726;44.732;10.550;2023-06-26T01:09:39;10.60;;;8.73;;
32236;SDS011;18726;44.732;10.550;2023-06-26T01:12:43;11.27;;;10.10;;
32236;SDS011;18726;44.732;10.550;2023-06-26T01:15:47;9.35;;;8.50;;
32236;SDS011;18726;44.732;10.550;2023-06-26T01:18:51;8.35;;;7.55;;
32236;SDS011;18726;44.732;10.550;2023-06-26T01:22:02;13.15;;;8.18;;
32236;SDS011;18726;44.732;10.550;2023-06-26T01:28:42;11.30;;;9.18;;
32236;SDS011;18726;44.732;10.550;2023-06-26T01:31:47;16.35;;;9.10;;
32236;SDS011;18726;44.732;10.550;2023-06-26T01:34:52;12.25;;;9.07;;
32236;SDS011;18726;44.732;10.550;2023-06-26T01:41:20;9.57;;;7.72;;
32236;SDS011;18726;44.732;10.550;2023-06-26T01:44:28;9.80;;;8.82;;
32236;SDS011;18726;44.732;10.550;2023-06-26T01:47:33;9.95;;;9.02;;
32236;SDS011;18726;44.732;10.550;2023-06-26T01:50:41;12.50;;;10.88;;
32236;SDS011;18726;44.732;10.550;2023-06-26T01:53:46;12.15;;;10.15;;
32236;SDS011;18726;44.732;10.550;2023-06-26T01:56:57;10.50;;;8.65;;
32236;SDS011;18726;44.732;10.550;2023-06-26T02:00:02;11.80;;;9.98;;
32236;SDS011;18726;44.732;10.550;2023-06-26T02:03:17;15.02;;;11.02;;
32236;SDS011;18726;44.732;10.550;2023-06-26T02:06:21;16.63;;;11.00;;
32236;SDS011;18726;44.732;10.550;2023-06-26T02:09:25;14.65;;;9.55;;
32236;SDS011;18726;44.732;10.550;2023-06-26T02:12:28;10.82;;;9.70;;
32236;SDS011;18726;44.732;10.550;2023-06-26T02:15:32;10.02;;;8.15;;
32236;SDS011;18726;44.732;10.550;2023-06-26T02:18:37;11.73;;;9.25;;
32236;SDS011;18726;44.732;10.550;2023-06-26T02:21:41;16.90;;;8.05;;
32236;SDS011;18726;44.732;10.550;2023-06-26T02:24:44;12.00;;;8.63;;
32236;SDS011;18726;44.732;10.550;2023-06-26T02:27:48;11.45;;;9.68;;
32236;SDS011;18726;44.732;10.550;2023-06-26T02:30:52;9.65;;;8.65;;
32236;SDS011;18726;44.732;10.550;2023-06-26T02:33:55;10.00;;;7.50;;
32236;SDS011;18726;44.732;10.550;2023-06-26T02:36:58;14.15;;;9.82;;
32236;SDS011;18726;44.732;10.550;2023-06-26T02:40:04;16.63;;;11.15;;
32236;SDS011;18726;44.732;10.550;2023-06-26T02:43:10;13.10;;;10.02;;
32236;SDS011;18726;44.732;10.550;2023-06-26T02:46:14;11.75;;;10.60;;
32236;SDS011;18726;44.732;10.550;2023-06-26T02:49:18;14.00;;;12.35;;
32236;SDS011;18726;44.732;10.550;2023-06-26T02:52:22;10.43;;;9.43;;
32236;SDS011;18726;44.732;10.550;2023-06-26T02:55:26;14.23;;;10.20;;
32236;SDS011;18726;44.732;10.550;2023-06-26T02:58:31;12.48;;;11.18;;
32236;SDS011;18726;44.732;10.550;2023-06-26T03:01:34;16.05;;;10.90;;
32236;SDS011;18726;44.732;10.550;2023-06-26T03:04:38;12.15;;;10.10;;
32236;SDS011;18726;44.732;10.550;2023-06-26T03:07:45;12.02;;;10.82;;
32236;SDS011;18726;44.732;10.550;2023-06-26T03:10:49;11.18;;;10.07;;
32236;SDS011;18726;44.732;10.550;2023-06-26T03:13:52;13.45;;;10.48;;
32236;SDS011;18726;44.732;10.550;2023-06-26T03:16:56;15.48;;;10.48;;
32236;SDS011;18726;44.732;10.550;2023-06-26T03:20:02;13.40;;;9.70;;
32236;SDS011;18726;44.732;10.550;2023-06-26T03:23:17;16.88;;;10.73;;
32236;SDS011;18726;44.732;10.550;2023-06-26T03:26:22;11.50;;;10.18;;
32236;SDS011;18726;44.732;10.550;2023-06-26T03:29:31;11.05;;;9.95;;
32236;SDS011;18726;44.732;10.550;2023-06-26T03:32:35;10.63;;;9.13;;
32236;SDS011;18726;44.732;10.550;2023-06-26T03:35:39;10.77;;;9.57;;
32236;SDS011;18726;44.732;10.550;2023-06-26T03:38:46;10.65;;;9.55;;
32236;SDS011;18726;44.732;10.550;2023-06-26T03:41:50;10.18;;;9.20;;
32236;SDS011;18726;44.732;10.550;2023-06-26T03:44:54;14.73;;;10.85;;
32236;SDS011;18726;44.732;10.550;2023-06-26T03:47:58;12.05;;;9.00;;
32236;SDS011;18726;44.732;10.550;2023-06-26T03:51:01;11.27;;;9.27;;
32236;SDS011;18726;44.732;10.550;2023-06-26T03:54:05;11.18;;;9.05;;
32236;SDS011;18726;44.732;10.550;2023-06-26T03:57:09;12.20;;;9.27;;
32236;SDS011;18726;44.732;10.550;2023-06-26T04:00:12;10.43;;;9.35;;
32236;SDS011;18726;44.732;10.550;2023-06-26T04:03:20;11.85;;;9.45;;
32236;SDS011;18726;44.732;10.550;2023-06-26T04:06:24;9.43;;;8.52;;
32236;SDS011;18726;44.732;10.550;2023-06-26T04:09:28;11.32;;;7.70;;
32236;SDS011;18726;44.732;10.550;2023-06-26T04:16:13;7.38;;;6.78;;
32236;SDS011;18726;44.732;10.550;2023-06-26T04:19:19;7.50;;;6.80;;
32236;SDS011;18726;44.732;10.550;2023-06-26T04:22:22;8.80;;;8.00;;
32236;SDS011;18726;44.732;10.550;2023-06-26T04:25:27;16.85;;;9.07;;
32236;SDS011;18726;44.732;10.550;2023-06-26T04:28:32;9.40;;;8.43;;
32236;SDS011;18726;44.732;10.550;2023-06-26T04:31:38;7.95;;;7.15;;
32236;SDS011;18726;44.732;10.550;2023-06-26T04:34:45;7.70;;;6.20;;
32236;SDS011;18726;44.732;10.550;2023-06-26T04:37:49;8.02;;;6.22;;
32236;SDS011;18726;44.732;10.550;2023-06-26T04:40:53;8.50;;;5.80;;
32236;SDS011;18726;44.732;10.550;2023-06-26T04:43:57;8.02;;;6.68;;
32236;SDS011;18726;44.732;10.550;2023-06-26T04:47:01;7.20;;;6.13;;
32236;SDS011;18726;44.732;10.550;2023-06-26T04:50:05;8.32;;;5.75;;
32236;SDS011;18726;44.732;10.550;2023-06-26T05:13:07;8.70;;;4.60;;
32236;SDS011;18726;44.732;10.550;2023-06-26T05:16:56;6.10;;;4.82;;
32236;SDS011;18726;44.732;10.550;2023-06-26T05:19:59;7.32;;;5.20;;
32236;SDS011;18726;44.732;10.550;2023-06-26T05:23:03;5.70;;;4.82;;
32236;SDS011;18726;44.732;10.550;2023-06-26T05:26:08;7.38;;;4.40;;
32236;SDS011;18726;44.732;10.550;2023-06-26T05:38:38;4.80;;;4.30;;
32236;SDS011;18726;44.732;10.550;2023-06-26T05:41:44;10.75;;;5.22;;
32236;SDS011;18726;44.732;10.550;2023-06-26T05:44:48;9.65;;;5.88;;
32236;SDS011;18726;44.732;10.550;2023-06-26T05:47:52;9.68;;;5.35;;
32236;SDS011;18726;44.732;10.550;2023-06-26T05:50:56;6.38;;;4.75;;
32236;SDS011;18726;44.732;10.550;2023-06-26T05:54:00;6.18;;;4.88;;
32236;SDS011;18726;44.732;10.550;2023-06-26T05:57:04;5.80;;;4.55;;
32236;SDS011;18726;44.732;10.550;2023-06-26T06:00:08;6.10;;;5.55;;
32236;SDS011;18726;44.732;10.550;2023-06-26T06:03:17;11.75;;;4.18;;
32236;SDS011;18726;44.732;10.550;2023-06-26T06:06:20;5.95;;;4.57;;
32236;SDS011;18726;44.732;10.550;2023-06-26T06:09:24;8.60;;;5.65;;
32236;SDS011;18726;44.732;10.550;2023-06-26T06:12:28;4.47;;;4.07;;
32236;SDS011;18726;44.732;10.550;2023-06-26T06:15:32;6.38;;;5.78;;
32236;SDS011;18726;44.732;10.550;2023-06-26T06:18:36;6.55;;;4.80;;
32236;SDS011;18726;44.732;10.550;2023-06-26T06:21:40;7.85;;;4.22;;
32236;SDS011;18726;44.732;10.550;2023-06-26T06:24:44;6.85;;;4.68;;
32236;SDS011;18726;44.732;10.550;2023-06-26T06:27:48;4.25;;;3.85;;
32236;SDS011;18726;44.732;10.550;2023-06-26T06:30:52;5.00;;;4.47;;
32236;SDS011;18726;44.732;10.550;2023-06-26T06:33:56;5.40;;;4.68;;
32236;SDS011;18726;44.732;10.550;2023-06-26T06:36:59;7.00;;;3.58;;
32236;SDS011;18726;44.732;10.550;2023-06-26T06:40:04;3.47;;;3.17;;
32236;SDS011;18726;44.732;10.550;2023-06-26T06:43:09;4.63;;;4.13;;
32236;SDS011;18726;44.732;10.550;2023-06-26T06:46:13;4.22;;;3.83;;
32236;SDS011;18726;44.732;10.550;2023-06-26T06:49:18;5.28;;;3.25;;
32236;SDS011;18726;44.732;10.550;2023-06-26T06:52:21;4.32;;;3.58;;
32236;SDS011;18726;44.732;10.550;2023-06-26T06:55:26;9.93;;;3.65;;
32236;SDS011;18726;44.732;10.550;2023-06-26T06:58:29;3.38;;;2.97;;
32236;SDS011;18726;44.732;10.550;2023-06-26T07:01:37;7.10;;;3.90;;
32236;SDS011;18726;44.732;10.550;2023-06-26T07:04:41;4.78;;;3.78;;
32236;SDS011;18726;44.732;10.550;2023-06-26T07:07:45;6.72;;;3.40;;
32236;SDS011;18726;44.732;10.550;2023-06-26T07:10:49;5.63;;;3.33;;
32236;SDS011;18726;44.732;10.550;2023-06-26T07:13:54;4.40;;;3.15;;
32236;SDS011;18726;44.732;10.550;2023-06-26T07:16:58;5.70;;;4.72;;
32236;SDS011;18726;44.732;10.550;2023-06-26T07:20:02;5.65;;;3.90;;
32236;SDS011;18726;44.732;10.550;2023-06-26T07:23:09;4.22;;;3.80;;
32236;SDS011;18726;44.732;10.550;2023-06-26T07:26:14;3.50;;;3.20;;
32236;SDS011;18726;44.732;10.550;2023-06-26T07:29:18;4.15;;;3.75;;
32236;SDS011;18726;44.732;10.550;2023-06-26T07:32:22;4.38;;;4.00;;
32236;SDS011;18726;44.732;10.550;2023-06-26T07:35:26;7.43;;;4.47;;
32236;SDS011;18726;44.732;10.550;2023-06-26T07:38:30;5.43;;;3.17;;
32236;SDS011;18726;44.732;10.550;2023-06-26T07:41:34;7.28;;;4.03;;
32236;SDS011;18726;44.732;10.550;2023-06-26T07:44:37;7.03;;;4.85;;
32236;SDS011;18726;44.732;10.550;2023-06-26T07:47:41;7.13;;;5.47;;
32236;SDS011;18726;44.732;10.550;2023-06-26T07:50:45;9.55;;;7.13;;
32236;SDS011;18726;44.732;10.550;2023-06-26T07:53:50;8.50;;;7.70;;
32236;SDS011;18726;44.732;10.550;2023-06-26T07:57:02;9.05;;;5.75;;
32236;SDS011;18726;44.732;10.550;2023-06-26T08:00:10;11.55;;;7.88;;
32236;SDS011;18726;44.732;10.550;2023-06-26T08:03:48;10.00;;;6.75;;
32236;SDS011;18726;44.732;10.550;2023-06-26T08:06:52;9.57;;;6.32;;
32236;SDS011;18726;44.732;10.550;2023-06-26T08:09:57;6.35;;;5.45;;
32236;SDS011;18726;44.732;10.550;2023-06-26T08:13:01;6.60;;;6.00;;
32236;SDS011;18726;44.732;10.550;2023-06-26T08:16:05;5.82;;;5.22;;
32236;SDS011;18726;44.732;10.550;2023-06-26T08:19:09;6.80;;;6.10;;
32236;SDS011;18726;44.732;10.550;2023-06-26T08:22:14;6.90;;;5.47;;
32236;SDS011;18726;44.732;10.550;2023-06-26T08:25:18;8.45;;;6.13;;
32236;SDS011;18726;44.732;10.550;2023-06-26T08:28:22;7.15;;;5.60;;
32236;SDS011;18726;44.732;10.550;2023-06-26T08:31:25;7.75;;;6.00;;
32236;SDS011;18726;44.732;10.550;2023-06-26T08:34:28;8.63;;;5.45;;
32236;SDS011;18726;44.732;10.550;2023-06-26T08:37:32;5.65;;;5.15;;
32236;SDS011;18726;44.732;10.550;2023-06-26T08:40:36;5.53;;;5.10;;
32236;SDS011;18726;44.732;10.550;2023-06-26T08:43:40;7.07;;;4.95;;
32236;SDS011;18726;44.732;10.550;2023-06-26T08:46:45;6.78;;;5.72;;
32236;SDS011;18726;44.732;10.550;2023-06-26T08:53:13;8.07;;;4.93;;
32236;SDS011;18726;44.732;10.550;2023-06-26T08:56:19;5.72;;;5.10;;
32236;SDS011;18726;44.732;10.550;2023-06-26T08:59:25;9.35;;;6.32;;
32236;SDS011;18726;44.732;10.550;2023-06-26T09:02:30;10.25;;;5.75;;
32236;SDS011;18726;44.732;10.550;2023-06-26T09:05:35;7.10;;;5.53;;
32236;SDS011;18726;44.732;10.550;2023-06-26T09:08:39;6.63;;;5.82;;
32236;SDS011;18726;44.732;10.550;2023-06-26T09:11:42;14.65;;;7.38;;
32236;SDS011;18726;44.732;10.550;2023-06-26T09:14:47;7.75;;;5.93;;
32236;SDS011;18726;44.732;10.550;2023-06-26T09:17:51;8.68;;;5.78;;
32236;SDS011;18726;44.732;10.550;2023-06-26T09:21:00;11.82;;;7.30;;
32236;SDS011;18726;44.732;10.550;2023-06-26T09:24:07;6.88;;;6.00;;
32236;SDS011;18726;44.732;10.550;2023-06-26T09:27:12;11.00;;;7.25;;
32236;SDS011;18726;44.732;10.550;2023-06-26T09:30:16;6.57;;;5.88;;
32236;SDS011;18726;44.732;10.550;2023-06-26T09:33:21;10.13;;;5.65;;
32236;SDS011;18726;44.732;10.550;2023-06-26T09:36:27;8.63;;;6.80;;
32236;SDS011;18726;44.732;10.550;2023-06-26T09:39:32;8.38;;;6.47;;
32236;SDS011;18726;44.732;10.550;2023-06-26T09:42:36;7.32;;;6.40;;
32236;SDS011;18726;44.732;10.550;2023-06-26T09:45:40;7.22;;;5.72;;
32236;SDS011;18726;44.732;10.550;2023-06-26T09:48:44;10.98;;;8.50;;
32236;SDS011;18726;44.732;10.550;2023-06-26T09:51:48;10.95;;;8.20;;
32236;SDS011;18726;44.732;10.550;2023-06-26T09:55:09;7.32;;;6.57;;
32236;SDS011;18726;44.732;10.550;2023-06-26T09:58:13;6.88;;;6.28;;
32236;SDS011;18726;44.732;10.550;2023-06-26T10:01:19;9.07;;;8.18;;
32236;SDS011;18726;44.732;10.550;2023-06-26T10:04:23;9.75;;;8.48;;
32236;SDS011;18726;44.732;10.550;2023-06-26T10:07:27;11.55;;;8.05;;
32236;SDS011;18726;44.732;10.550;2023-06-26T10:10:32;7.30;;;6.60;;
32236;SDS011;18726;44.732;10.550;2023-06-26T10:13:42;12.48;;;8.32;;
32236;SDS011;18726;44.732;10.550;2023-06-26T10:16:49;14.48;;;7.20;;
32236;SDS011;18726;44.732;10.550;2023-06-26T10:19:53;8.27;;;6.57;;
32236;SDS011;18726;44.732;10.550;2023-06-26T10:22:59;12.45;;;7.80;;
32236;SDS011;18726;44.732;10.550;2023-06-26T10:26:07;9.40;;;7.43;;
32236;SDS011;18726;44.732;10.550;2023-06-26T10:29:13;8.00;;;6.55;;
32236;SDS011;18726;44.732;10.550;2023-06-26T10:32:20;9.18;;;6.82;;
32236;SDS011;18726;44.732;10.550;2023-06-26T10:35:25;7.82;;;6.82;;
32236;SDS011;18726;44.732;10.550;2023-06-26T10:38:47;15.63;;;7.15;;
32236;SDS011;18726;44.732;10.550;2023-06-26T10:41:57;11.00;;;9.95;;
32236;SDS011;18726;44.732;10.550;2023-06-26T10:45:17;11.70;;;9.43;;
32236;SDS011;18726;44.732;10.550;2023-06-26T10:48:25;13.57;;;9.30;;
32236;SDS011;18726;44.732;10.550;2023-06-26T10:51:32;8.82;;;7.20;;
32236;SDS011;18726;44.732;10.550;2023-06-26T10:54:36;9.73;;;8.10;;
32236;SDS011;18726;44.732;10.550;2023-06-26T10:57:44;7.03;;;6.32;;
32236;SDS011;18726;44.732;10.550;2023-06-26T11:00:49;8.23;;;6.32;;
32236;SDS011;18726;44.732;10.550;2023-06-26T11:07:15;9.52;;;5.63;;
32236;SDS011;18726;44.732;10.550;2023-06-26T11:10:20;8.25;;;7.45;;
32236;SDS011;18726;44.732;10.550;2023-06-26T11:13:23;11.70;;;7.15;;
32236;SDS011;18726;44.732;10.550;2023-06-26T11:16:27;7.50;;;5.78;;
32236;SDS011;18726;44.732;10.550;2023-06-26T11:19:31;9.45;;;5.72;;
32236;SDS011;18726;44.732;10.550;2023-06-26T11:22:36;8.05;;;6.20;;
32236;SDS011;18726;44.732;10.550;2023-06-26T11:25:41;5.85;;;5.22;;
32236;SDS011;18726;44.732;10.550;2023-06-26T11:28:50;9.38;;;5.97;;
32236;SDS011;18726;44.732;10.550;2023-06-26T11:31:58;9.68;;;6.57;;
32236;SDS011;18726;44.732;10.550;2023-06-26T11:35:04;6.50;;;5.90;;
32236;SDS011;18726;44.732;10.550;2023-06-26T11:38:08;8.00;;;6.72;;
32236;SDS011;18726;44.732;10.550;2023-06-26T11:41:16;6.50;;;5.90;;
32236;SDS011;18726;44.732;10.550;2023-06-26T11:44:21;10.93;;;6.85;;
32236;SDS011;18726;44.732;10.550;2023-06-26T11:47:25;8.13;;;6.40;;
32236;SDS011;18726;44.732;10.550;2023-06-26T11:50:29;11.23;;;5.55;;
32236;SDS011;18726;44.732;10.550;2023-06-26T11:53:41;6.68;;;5.97;;
32236;SDS011;18726;44.732;10.550;2023-06-26T11:56:51;13.65;;;7.75;;
32236;SDS011;18726;44.732;10.550;2023-06-26T12:00:12;6.47;;;5.75;;
32236;SDS011;18726;44.732;10.550;2023-06-26T12:03:16;8.15;;;6.43;;
32236;SDS011;18726;44.732;10.550;2023-06-26T12:06:20;11.35;;;7.78;;
32236;SDS011;18726;44.732;10.550;2023-06-26T12:09:24;6.78;;;5.80;;
32236;SDS011;18726;44.732;10.550;2023-06-26T12:12:30;7.07;;;6.38;;
32236;SDS011;18726;44.732;10.550;2023-06-26T12:15:35;6.32;;;5.72;;
32236;SDS011;18726;44.732;10.550;2023-06-26T12:18:38;7.00;;;6.07;;
32236;SDS011;18726;44.732;10.550;2023-06-26T12:21:45;6.07;;;5.43;;
32236;SDS011;18726;44.732;10.550;2023-06-26T12:24:50;6.57;;;5.97;;
32236;SDS011;18726;44.732;10.550;2023-06-26T12:27:53;8.02;;;4.97;;
32236;SDS011;18726;44.732;10.550;2023-06-26T12:31:11;7.15;;;4.47;;
32236;SDS011;18726;44.732;10.550;2023-06-26T12:34:21;5.75;;;5.18;;
32236;SDS011;18726;44.732;10.550;2023-06-26T12:37:30;6.80;;;5.57;;
32236;SDS011;18726;44.732;10.550;2023-06-26T12:40:46;8.00;;;5.88;;
32236;SDS011;18726;44.732;10.550;2023-06-26T12:47:00;7.25;;;5.53;;
32236;SDS011;18726;44.732;10.550;2023-06-26T12:50:04;7.13;;;5.15;;
32236;SDS011;18726;44.732;10.550;2023-06-26T12:53:09;6.50;;;5.22;;
32236;SDS011;18726;44.732;10.550;2023-06-26T12:56:13;6.53;;;4.90;;
32236;SDS011;18726;44.732;10.550;2023-06-26T12:59:19;6.60;;;5.13;;
32236;SDS011;18726;44.732;10.550;2023-06-26T13:02:24;6.65;;;5.50;;
32236;SDS011;18726;44.732;10.550;2023-06-26T13:05:28;6.57;;;5.97;;
32236;SDS011;18726;44.732;10.550;2023-06-26T13:08:35;7.03;;;6.22;;
32236;SDS011;18726;44.732;10.550;2023-06-26T13:11:39;9.27;;;5.97;;
32236;SDS011;18726;44.732;10.550;2023-06-26T13:14:43;6.40;;;5.72;;
32236;SDS011;18726;44.732;10.550;2023-06-26T13:17:47;12.13;;;6.50;;
32236;SDS011;18726;44.732;10.550;2023-06-26T13:20:51;7.22;;;5.90;;
32236;SDS011;18726;44.732;10.550;2023-06-26T13:23:55;6.60;;;5.57;;
32236;SDS011;18726;44.732;10.550;2023-06-26T13:26:59;5.75;;;5.22;;
32236;SDS011;18726;44.732;10.550;2023-06-26T13:30:03;10.95;;;5.45;;
32236;SDS011;18726;44.732;10.550;2023-06-26T13:33:08;8.95;;;6.32;;
32236;SDS011;18726;44.732;10.550;2023-06-26T13:36:14;8.65;;;5.80;;
32236;SDS011;18726;44.732;10.550;2023-06-26T13:39:19;6.28;;;5.72;;
32236;SDS011;18726;44.732;10.550;2023-06-26T13:42:22;6.00;;;5.43;;
32236;SDS011;18726;44.732;10.550;2023-06-26T13:45:26;6.18;;;5.60;;
32236;SDS011;18726;44.732;10.550;2023-06-26T13:48:29;5.95;;;5.32;;
32236;SDS011;18726;44.732;10.550;2023-06-26T13:51:33;6.22;;;5.63;;
32236;SDS011;18726;44.732;10.550;2023-06-26T13:54:37;6.97;;;6.28;;
32236;SDS011;18726;44.732;10.550;2023-06-26T13:57:44;10.02;;;5.82;;
32236;SDS011;18726;44.732;10.550;2023-06-26T14:00:48;7.32;;;5.65;;
32236;SDS011;18726;44.732;10.550;2023-06-26T14:03:52;6.88;;;6.20;;
32236;SDS011;18726;44.732;10.550;2023-06-26T14:06:56;6.70;;;5.25;;
32236;SDS011;18726;44.732;10.550;2023-06-26T14:10:00;6.20;;;5.70;;
32236;SDS011;18726;44.732;10.550;2023-06-26T14:13:04;5.82;;;5.25;;
32236;SDS011;18726;44.732;10.550;2023-06-26T14:16:08;6.60;;;5.95;;
32236;SDS011;18726;44.732;10.550;2023-06-26T14:19:12;6.82;;;5.88;;
32236;SDS011;18726;44.732;10.550;2023-06-26T14:22:18;7.20;;;5.88;;
32236;SDS011;18726;44.732;10.550;2023-06-26T14:25:22;9.40;;;5.07;;
32236;SDS011;18726;44.732;10.550;2023-06-26T14:28:26;6.55;;;5.25;;
32236;SDS011;18726;44.732;10.550;2023-06-26T14:31:30;11.25;;;5.80;;
32236;SDS011;18726;44.732;10.550;2023-06-26T14:34:34;7.13;;;6.20;;
32236;SDS011;18726;44.732;10.550;2023-06-26T14:37:38;7.85;;;5.57;;
32236;SDS011;18726;44.732;10.550;2023-06-26T14:40:42;6.15;;;5.53;;
32236;SDS011;18726;44.732;10.550;2023-06-26T14:43:46;6.18;;;5.57;;
32236;SDS011;18726;44.732;10.550;2023-06-26T14:46:50;7.80;;;6.20;;
32236;SDS011;18726;44.732;10.550;2023-06-26T14:49:54;7.18;;;6.47;;
32236;SDS011;18726;44.732;10.550;2023-06-26T14:52:58;11.05;;;6.15;;
32236;SDS011;18726;44.732;10.550;2023-06-26T14:56:02;7.50;;;5.68;;
32236;SDS011;18726;44.732;10.550;2023-06-26T14:59:06;11.45;;;6.57;;
32236;SDS011;18726;44.732;10.550;2023-06-26T15:02:10;6.65;;;6.05;;
32236;SDS011;18726;44.732;10.550;2023-06-26T15:05:14;8.68;;;6.57;;
32236;SDS011;18726;44.732;10.550;2023-06-26T15:08:18;11.93;;;6.72;;
32236;SDS011;18726;44.732;10.550;2023-06-26T15:11:21;7.00;;;5.65;;
32236;SDS011;18726;44.732;10.550;2023-06-26T15:14:25;8.02;;;6.40;;
32236;SDS011;18726;44.732;10.550;2023-06-26T15:17:29;6.65;;;6.05;;
32236;SDS011;18726;44.732;10.550;2023-06-26T15:20:32;8.32;;;6.38;;
32236;SDS011;18726;44.732;10.550;2023-06-26T15:23:36;7.18;;;5.63;;
32236;SDS011;18726;44.732;10.550;2023-06-26T15:26:40;8.05;;;5.20;;
32236;SDS011;18726;44.732;10.550;2023-06-26T15:29:43;6.10;;;5.53;;
32236;SDS011;18726;44.732;10.550;2023-06-26T15:32:47;7.55;;;6.18;;
32236;SDS011;18726;44.732;10.550;2023-06-26T15:35:51;6.50;;;5.72;;
32236;SDS011;18726;44.732;10.550;2023-06-26T15:38:55;6.53;;;5.82;;
32236;SDS011;18726;44.732;10.550;2023-06-26T15:41:59;9.85;;;5.90;;
32236;SDS011;18726;44.732;10.550;2023-06-26T15:45:03;7.10;;;6.40;;
32236;SDS011;18726;44.732;10.550;2023-06-26T15:48:08;6.38;;;5.57;;
32236;SDS011;18726;44.732;10.550;2023-06-26T15:51:12;9.02;;;6.25;;
32236;SDS011;18726;44.732;10.550;2023-06-26T15:54:17;9.13;;;6.00;;
32236;SDS011;18726;44.732;10.550;2023-06-26T15:57:21;8.30;;;5.90;;
32236;SDS011;18726;44.732;10.550;2023-06-26T16:00:25;10.98;;;5.82;;
32236;SDS011;18726;44.732;10.550;2023-06-26T16:03:29;7.28;;;6.28;;
32236;SDS011;18726;44.732;10.550;2023-06-26T16:06:33;9.23;;;5.78;;
32236;SDS011;18726;44.732;10.550;2023-06-26T16:09:37;6.03;;;5.53;;
32236;SDS011;18726;44.732;10.550;2023-06-26T16:12:41;6.57;;;4.97;;
32236;SDS011;18726;44.732;10.550;2023-06-26T16:15:45;6.47;;;5.35;;
32236;SDS011;18726;44.732;10.550;2023-06-26T16:18:49;6.38;;;5.78;;
32236;SDS011;18726;44.732;10.550;2023-06-26T16:21:53;6.50;;;5.90;;
32236;SDS011;18726;44.732;10.550;2023-06-26T16:24:57;8.15;;;5.47;;
32236;SDS011;18726;44.732;10.550;2023-06-26T16:28:02;7.28;;;5.75;;
32236;SDS011;18726;44.732;10.550;2023-06-26T16:31:06;7.47;;;5.88;;
32236;SDS011;18726;44.732;10.550;2023-06-26T16:34:10;14.02;;;7.80;;
32236;SDS011;18726;44.732;10.550;2023-06-26T16:37:14;6.80;;;5.85;;
32236;SDS011;18726;44.732;10.550;2023-06-26T16:40:17;8.40;;;5.20;;
32236;SDS011;18726;44.732;10.550;2023-06-26T16:43:21;6.97;;;6.25;;
32236;SDS011;18726;44.732;10.550;2023-06-26T16:46:25;6.22;;;5.28;;
32236;SDS011;18726;44.732;10.550;2023-06-26T16:49:28;14.00;;;6.10;;
32236;SDS011;18726;44.732;10.550;2023-06-26T16:52:32;6.88;;;5.47;;
32236;SDS011;18726;44.732;10.550;2023-06-26T16:55:37;9.40;;;6.20;;
32236;SDS011;18726;44.732;10.550;2023-06-26T16:58:40;7.45;;;5.65;;
32236;SDS011;18726;44.732;10.550;2023-06-26T17:01:44;7.63;;;5.90;;
32236;SDS011;18726;44.732;10.550;2023-06-26T17:04:48;6.72;;;5.80;;
32236;SDS011;18726;44.732;10.550;2023-06-26T17:07:51;9.35;;;6.30;;
32236;SDS011;18726;44.732;10.550;2023-06-26T17:10:55;6.57;;;5.63;;
32236;SDS011;18726;44.732;10.550;2023-06-26T17:13:58;7.85;;;6.65;;
32236;SDS011;18726;44.732;10.550;2023-06-26T17:17:02;6.88;;;5.80;;
32236;SDS011;18726;44.732;10.550;2023-06-26T17:20:07;5.18;;;4.78;;
32236;SDS011;18726;44.732;10.550;2023-06-26T17:23:14;9.40;;;6.00;;
32236;SDS011;18726;44.732;10.550;2023-06-26T17:26:18;7.93;;;5.63;;
32236;SDS011;18726;44.732;10.550;2023-06-26T17:29:23;8.48;;;6.50;;
32236;SDS011;18726;44.732;10.550;2023-06-26T17:32:27;8.60;;;7.15;;
32236;SDS011;18726;44.732;10.550;2023-06-26T17:35:31;7.55;;;6.85;;
32236;SDS011;18726;44.732;10.550;2023-06-26T17:38:38;13.32;;;8.82;;
32236;SDS011;18726;44.732;10.550;2023-06-26T17:41:43;7.82;;;6.97;;
32236;SDS011;18726;44.732;10.550;2023-06-26T17:44:46;8.20;;;7.32;;
32236;SDS011;18726;44.732;10.550;2023-06-26T17:47:50;7.45;;;6.70;;
32236;SDS011;18726;44.732;10.550;2023-06-26T17:50:54;9.07;;;6.28;;
32236;SDS011;18726;44.732;10.550;2023-06-26T17:53:58;9.57;;;7.20;;
32236;SDS011;18726;44.732;10.550;2023-06-26T17:57:02;8.20;;;6.75;;
32236;SDS011;18726;44.732;10.550;2023-06-26T18:00:06;9.82;;;7.57;;
32236;SDS011;18726;44.732;10.550;2023-06-26T18:03:15;8.18;;;7.32;;
32236;SDS011;18726;44.732;10.550;2023-06-26T18:06:18;9.40;;;7.20;;
32236;SDS011;18726;44.732;10.550;2023-06-26T18:09:22;10.02;;;7.10;;
32236;SDS011;18726;44.732;10.550;2023-06-26T18:12:26;11.40;;;8.02;;
32236;SDS011;18726;44.732;10.550;2023-06-26T18:15:30;12.23;;;8.88;;
32236;SDS011;18726;44.732;10.550;2023-06-26T18:18:37;10.45;;;8.05;;
32236;SDS011;18726;44.732;10.550;2023-06-26T18:21:41;9.35;;;8.45;;
32236;SDS011;18726;44.732;10.550;2023-06-26T18:24:45;11.98;;;9.25;;
32236;SDS011;18726;44.732;10.550;2023-06-26T18:27:48;11.68;;;9.35;;
32236;SDS011;18726;44.732;10.550;2023-06-26T18:30:52;12.02;;;9.27;;
32236;SDS011;18726;44.732;10.550;2023-06-26T18:33:56;9.52;;;8.45;;
32236;SDS011;18726;44.732;10.550;2023-06-26T18:37:00;11.95;;;9.23;;
32236;SDS011;18726;44.732;10.550;2023-06-26T18:40:05;13.45;;;9.95;;
32236;SDS011;18726;44.732;10.550;2023-06-26T18:43:19;13.13;;;9.45;;
32236;SDS011;18726;44.732;10.550;2023-06-26T18:46:27;11.10;;;9.25;;
32236;SDS011;18726;44.732;10.550;2023-06-26T18:49:31;9.82;;;8.85;;
32236;SDS011;18726;44.732;10.550;2023-06-26T18:52:35;12.75;;;9.50;;
32236;SDS011;18726;44.732;10.550;2023-06-26T18:55:39;14.15;;;9.40;;
32236;SDS011;18726;44.732;10.550;2023-06-26T18:58:43;11.57;;;9.07;;
32236;SDS011;18726;44.732;10.550;2023-06-26T19:01:47;11.40;;;9.55;;